• Join FlightAware (Why Join?)
  • Login
  • US Flag GB Flag 
03:58 EST


 

Airport Tracker/Info


-or-


 

Live Flight TrackerFlight Track Log ✈ UAL3776 ✈ 09-Apr-2013 ✈ KIAD - KRDU

Flight Track Log - Related Links

Times and Time Zones

All times are in EDT time to prevent confusion due to time zone crossing. See the UAL3776 flight status page for this flight to view local times or setup timezone preferences in your user account.

Time Position Orientation Groundspeed Altitude Reporting Facility
EDT Latitude Longitude Course Direction KTS MPH feet Rate Location/Type
15:40 38.9000 -77.5167 201° Southwest 246 283 3,500  Level Potomac TRACON
15:42 38.7381 -77.4839 171° South 278 320 9,600 2,446 Climbing Washington Center
15:43 38.6508 -77.4578 167° South 299 344 11,000 1,850 Climbing Washington Center
15:44 38.2965 -77.6351 201° Southwest  Level FlightAware Approximate
15:44 38.5731 -77.3683 138° Southeast 327 376 13,300  Level Washington Center
15:45 38.2100 -77.7200 201° Southwest  Level FlightAware Approximate
15:45 38.4811 -77.3739 183° South 327 376 15,400  Level Washington Center
15:46 38.4336 -77.4789 240° Southwest 259 298 17,400 1,800 Climbing Washington Center
15:47 38.3883 -77.5758 239° Southwest 301 346 19,000 1,700 Climbing Washington Center
15:48 38.2908 -77.6606 214° Southwest 365 420 20,800 1,500 Climbing Washington Center
15:49 38.2064 -77.7294 213° Southwest 397 457 22,000 600 Climbing Washington Center
15:50 38.0983 -77.8239 215° Southwest 416 479 22,000  Level Washington Center
15:51 37.9944 -77.9131 214° Southwest 442 509 22,000  Level Washington Center
15:52 37.8925 -77.9994 214° Southwest 453 521 22,000  Level Washington Center
15:53 37.7908 -78.0856 214° Southwest 453 521 22,000  Level Washington Center
15:54 37.6886 -78.1742 214° Southwest 453 521 22,000  Level Washington Center
15:55 37.5825 -78.2647 214° Southwest 452 520 22,000  Level Washington Center
15:56 37.4783 -78.3528 214° Southwest 452 520 22,000  Level Washington Center
15:57 37.3825 -78.4303 213° Southwest 452 520 22,000  Level Washington Center
15:58 37.2761 -78.5178 213° Southwest 457 526 22,000  Level Washington Center
15:59 37.1678 -78.5944 209° Southwest 457 526 22,000 -200 Level Washington Center
16:00 37.0456 -78.6469 199° South 462 532 21,600 -1,450 Descending Washington Center
16:01 36.9253 -78.7019 200° South 440 506 19,100 -2,250 Descending Washington Center
16:02 36.8175 -78.7494 199° South 426 490 17,100 -2,050 Descending Washington Center
16:03 36.7119 -78.7944 199° South 421 484 15,000 -2,043 Descending Washington Center
16:04 36.6550 -78.8231 202° Southwest 399 459 13,900 -2,000 Descending Washington Center
16:04 36.6064 -78.8444 199° South 411 473 13,000 -2,149 Descending Washington Center
16:05 36.5347 -78.8750 199° South 390 449 11,500 -2,100 Descending Washington Center
16:05 36.5050 -78.8892 201° Southwest 406 467 10,900 -2,167 Descending Washington Center
16:05 36.4756 -78.9033 201° Southwest 381 438 10,200 -1,000 Descending Washington Center
16:06 36.4164 -78.9294 200° South 378 435 9,900 -179 Descending Washington Center
16:06 36.3831 -78.9203 168° South 295 339 10,000 -1,000 Climbing Washington Center
16:07 36.3425 -78.8850 145° Southeast 283 326 8,900 -1,770 Descending Washington Center
16:07 36.3158 -78.8631 146° Southeast 290 334 8,200 -800 Descending Washington Center
16:08 36.2833 -78.8308 141° Southeast 283 326 8,100 -179 Descending Washington Center
16:09 36.2425 -78.7958 145° Southeast 289 333 8,000 -100 Descending Washington Center
16:09 36.2222 -78.7744 140° Southeast 285 328 8,000 -885 Level Washington Center
16:10 36.1875 -78.7472 148° Southeast 240 276 7,100 -1,500 Descending Washington Center
16:10 36.1611 -78.7231 144° Southeast 257 296 6,500 -1,100 Descending Washington Center
16:11 36.1303 -78.6986 147° Southeast 236 272 6,000 -1,100 Descending Washington Center
16:11 36.1081 -78.6797 146° Southeast 246 283 5,400 -1,770 Descending Washington Center
16:12 36.0750 -78.6606 155° Southeast 231 266 4,200 -2,000 Descending Washington Center
16:12 36.0481 -78.6594 178° South 232 267 3,400 -1,075 Descending Washington Center
16:13 36.0058 -78.6706 192° South 210 242 3,000 -400 Descending Washington Center
16:13 35.9892 -78.6725 185° South 217 250 3,000  Level Washington Center